MMMXMMMY [119]

Guest
Details From MMMX - Licenciado Benito Juarez Intl
To MMMY - General Mariano Escobedo Intl
Flight Number 119
Tags Real Commercial Decoded
Created
Modified
Stats Distance 386 nm / 715 km
Max Altitude 0 ft / 0 m
Waypoints 2
Social Downloads 10
Likes 0
Share VATSIM

Download

Looking for another format? Having issues loading an existing format? Contact us
Advertisement - Login to hide

Notes

Decoded

Route

MMMX MMMY

ID Type Via Altitude Latitude Longitude Leg Dist Tot Dist Heading (true) Name
O MMMX APT - 0 ft / 0 m 19.42701˚ -99.08585˚ - 0 nm - -
O MMMY APT - 0 ft / 0 m 25.78809˚ -100.10963˚ 386 nm 386 nm 352° / 351° -

Altitude Profile

Advertisement - Login to hide

Weather


0- 5 10 15 20 25 30 35+ Temperature / ° C

Clouds and Precipitation
Forecast for 2018-05-25 12:00 UTC. Updated 33 minutes ago

Ground ~20,000 ft ~40,000 ft Winds

MMMX

Details ICAO MMMX (MEX)
Name Licenciado Benito Juarez Intl
Region Mexico
Timezone America/Mexico_City (UTC-5.0)
Stats Elevation 7,316 ft / 2,230 m (AMSL)
Location 19.436308° -99.072104°
Runways 2
Magnetic Variation 4.597° E

METAR

MMMX 251046Z 10008KT 7SM SKC 13/09 A3034 NOSIG RMK HZY

Decode

TAF

Not found

Departure Runways

ID Width Length Bearing (true) Bearing (mag) Surface Threshold Offset Overrun Length
05L 148 ft / 45 m 12,951 ft / 3,948 m 59.25° 54.65° Asphalt 1,033 ft / 315 m 0 ft / 0 m
05R 148 ft / 45 m 12,800 ft / 3,902 m 59.26° 54.66° Asphalt 1,493 ft / 455 m 0 ft / 0 m
23L 148 ft / 45 m 12,800 ft / 3,902 m 239.28° 234.68° Asphalt 0 ft / 0 m 200 ft / 61 m
23R 148 ft / 45 m 12,951 ft / 3,948 m 239.27° 234.67° Asphalt 1,640 ft / 500 m 0 ft / 0 m

MMMY

Details ICAO MMMY (MTY)
Name General Mariano Escobedo Intl
Region Mexico
Timezone America/Monterrey (UTC-5.0)
Stats Elevation 1,278 ft / 390 m (AMSL)
Location 25.778652° -100.105852°
Runways 2
Magnetic Variation 4.986° E

METAR

MMMY 251048Z 06004KT 8SM SCT070 22/20 A2996 RMK 8/070 HZY

Decode

TAF

Not found

Destination Runways

ID Width Length Bearing (true) Bearing (mag) Surface Threshold Offset Overrun Length
11 148 ft / 45 m 9,905 ft / 3,019 m 121.28° 116.29° Asphalt 0 ft / 0 m 200 ft / 61 m
16 98 ft / 30 m 5,931 ft / 1,808 m 165.55° 160.56° Asphalt 0 ft / 0 m 215 ft / 66 m
29 148 ft / 45 m 9,905 ft / 3,019 m 301.29° 296.30° Asphalt 0 ft / 0 m 0 ft / 0 m
34 98 ft / 30 m 5,931 ft / 1,808 m 345.55° 340.56° Asphalt 0 ft / 0 m 215 ft / 66 m

Approach Navaids

Runway Type Ident Frequency Range Bearing (true) Bearing (mag) Slope Elevation
29 Localiser IMTY 111.10 MHz 18 nm / 33 km 301.38° 296.40° - 1,278 ft / 390 m (AMSL)
29 Glidescope IMTY 111.10 MHz 10 nm / 19 km 301.29° 296.30° 3.00° 1,278 ft / 390 m (AMSL)
29 DME IMTY 111.10 MHz 18 nm / 33 km - - - 1,278 ft / 390 m (AMSL)

Popular Alternatives